sensor_id;sensor_type;location;lat;lon;timestamp;P1;durP1;ratioP1;P2;durP2;ratioP2
16401;SDS011;8310;44.626;11.176;2023-04-24T03:57:39;6.55;;;5.95;;
16401;SDS011;8310;44.626;11.176;2023-04-24T04:24:43;7.68;;;7.07;;
16401;SDS011;8310;44.626;11.176;2023-04-24T04:27:11;7.97;;;6.72;;
16401;SDS011;8310;44.626;11.176;2023-04-24T04:29:39;7.57;;;6.80;;
16401;SDS011;8310;44.626;11.176;2023-04-24T05:16:29;15.10;;;13.70;;
16401;SDS011;8310;44.626;11.176;2023-04-24T05:33:42;14.20;;;12.80;;
16401;SDS011;8310;44.626;11.176;2023-04-24T05:36:10;14.77;;;13.30;;
16401;SDS011;8310;44.626;11.176;2023-04-24T05:41:07;16.08;;;14.48;;
16401;SDS011;8310;44.626;11.176;2023-04-24T05:46:02;15.10;;;13.60;;
16401;SDS011;8310;44.626;11.176;2023-04-24T05:50:57;17.40;;;15.20;;
16401;SDS011;8310;44.626;11.176;2023-04-24T05:53:25;15.20;;;13.70;;
16401;SDS011;8310;44.626;11.176;2023-04-24T05:55:52;15.32;;;13.82;;
16401;SDS011;8310;44.626;11.176;2023-04-24T05:58:21;14.60;;;13.27;;
16401;SDS011;8310;44.626;11.176;2023-04-24T06:00:49;15.52;;;14.02;;
16401;SDS011;8310;44.626;11.176;2023-04-24T06:03:16;15.13;;;13.77;;
16401;SDS011;8310;44.626;11.176;2023-04-24T06:05:44;15.98;;;14.48;;
16401;SDS011;8310;44.626;11.176;2023-04-24T06:08:11;17.48;;;15.80;;
16401;SDS011;8310;44.626;11.176;2023-04-24T06:10:39;16.40;;;14.70;;
16401;SDS011;8310;44.626;11.176;2023-04-24T07:19:38;20.73;;;18.60;;
16401;SDS011;8310;44.626;11.176;2023-04-24T07:22:05;19.80;;;17.73;;
16401;SDS011;8310;44.626;11.176;2023-04-24T07:24:34;19.80;;;17.90;;
16401;SDS011;8310;44.626;11.176;2023-04-24T07:27:02;19.73;;;17.77;;
16401;SDS011;8310;44.626;11.176;2023-04-24T07:29:29;20.35;;;18.35;;
16401;SDS011;8310;44.626;11.176;2023-04-24T07:31:57;20.75;;;18.55;;
16401;SDS011;8310;44.626;11.176;2023-04-24T07:34:24;21.13;;;18.83;;
16401;SDS011;8310;44.626;11.176;2023-04-24T07:36:53;19.48;;;17.52;;
16401;SDS011;8310;44.626;11.176;2023-04-24T07:39:20;19.92;;;17.92;;
16401;SDS011;8310;44.626;11.176;2023-04-24T07:41:49;21.92;;;18.75;;
16401;SDS011;8310;44.626;11.176;2023-04-24T07:44:17;19.30;;;17.35;;
16401;SDS011;8310;44.626;11.176;2023-04-24T07:46:44;17.95;;;16.13;;
16401;SDS011;8310;44.626;11.176;2023-04-24T07:49:11;17.92;;;16.15;;
16401;SDS011;8310;44.626;11.176;2023-04-24T07:51:39;17.20;;;15.60;;
16401;SDS011;8310;44.626;11.176;2023-04-24T07:54:07;18.35;;;16.45;;
16401;SDS011;8310;44.626;11.176;2023-04-24T07:56:34;17.30;;;15.50;;
16401;SDS011;8310;44.626;11.176;2023-04-24T07:59:05;17.60;;;15.80;;
16401;SDS011;8310;44.626;11.176;2023-04-24T08:01:33;17.38;;;15.82;;
16401;SDS011;8310;44.626;11.176;2023-04-24T08:04:01;16.85;;;15.32;;
16401;SDS011;8310;44.626;11.176;2023-04-24T08:06:29;16.97;;;15.27;;
16401;SDS011;8310;44.626;11.176;2023-04-24T08:08:57;16.08;;;14.48;;
16401;SDS011;8310;44.626;11.176;2023-04-24T08:11:25;16.15;;;14.65;;
16401;SDS011;8310;44.626;11.176;2023-04-24T08:13:52;15.55;;;14.13;;
16401;SDS011;8310;44.626;11.176;2023-04-24T08:16:21;16.55;;;14.95;;
16401;SDS011;8310;44.626;11.176;2023-04-24T08:18:49;18.02;;;16.23;;
16401;SDS011;8310;44.626;11.176;2023-04-24T08:21:17;17.05;;;15.35;;
16401;SDS011;8310;44.626;11.176;2023-04-24T08:23:45;16.55;;;14.95;;
16401;SDS011;8310;44.626;11.176;2023-04-24T08:26:13;16.73;;;14.98;;
16401;SDS011;8310;44.626;11.176;2023-04-24T08:28:41;15.05;;;13.48;;
16401;SDS011;8310;44.626;11.176;2023-04-24T08:31:09;12.75;;;11.65;;
16401;SDS011;8310;44.626;11.176;2023-04-24T08:33:39;12.68;;;11.30;;
16401;SDS011;8310;44.626;11.176;2023-04-24T08:36:06;12.77;;;11.73;;
16401;SDS011;8310;44.626;11.176;2023-04-24T08:38:34;14.07;;;12.77;;
16401;SDS011;8310;44.626;11.176;2023-04-24T08:41:01;14.15;;;12.75;;
16401;SDS011;8310;44.626;11.176;2023-04-24T08:43:29;14.73;;;13.43;;
16401;SDS011;8310;44.626;11.176;2023-04-24T08:45:59;12.63;;;11.65;;
16401;SDS011;8310;44.626;11.176;2023-04-24T08:48:27;9.73;;;8.85;;
16401;SDS011;8310;44.626;11.176;2023-04-24T08:50:57;10.38;;;9.48;;
16401;SDS011;8310;44.626;11.176;2023-04-24T08:53:25;10.45;;;9.45;;
16401;SDS011;8310;44.626;11.176;2023-04-24T08:55:54;10.20;;;9.30;;
16401;SDS011;8310;44.626;11.176;2023-04-24T08:58:22;9.25;;;8.40;;
16401;SDS011;8310;44.626;11.176;2023-04-24T09:00:53;9.45;;;8.73;;
16401;SDS011;8310;44.626;11.176;2023-04-24T09:03:22;8.30;;;7.70;;
16401;SDS011;8310;44.626;11.176;2023-04-24T09:05:49;8.27;;;7.47;;
16401;SDS011;8310;44.626;11.176;2023-04-24T09:08:19;9.13;;;8.32;;
16401;SDS011;8310;44.626;11.176;2023-04-24T09:10:47;9.45;;;8.55;;
16401;SDS011;8310;44.626;11.176;2023-04-24T09:13:15;8.48;;;7.75;;
16401;SDS011;8310;44.626;11.176;2023-04-24T09:18:09;9.98;;;8.98;;
16401;SDS011;8310;44.626;11.176;2023-04-24T09:23:29;9.60;;;8.68;;
16401;SDS011;8310;44.626;11.176;2023-04-24T09:25:58;10.13;;;9.15;;
16401;SDS011;8310;44.626;11.176;2023-04-24T09:28:27;10.77;;;9.82;;
16401;SDS011;8310;44.626;11.176;2023-04-24T09:31:02;11.38;;;10.27;;
16401;SDS011;8310;44.626;11.176;2023-04-24T09:33:34;11.88;;;10.80;;
16401;SDS011;8310;44.626;11.176;2023-04-24T09:36:02;9.40;;;8.60;;
16401;SDS011;8310;44.626;11.176;2023-04-24T09:48:29;9.50;;;8.63;;
16401;SDS011;8310;44.626;11.176;2023-04-24T09:50:57;9.52;;;8.68;;
16401;SDS011;8310;44.626;11.176;2023-04-24T09:53:25;7.65;;;7.05;;
16401;SDS011;8310;44.626;11.176;2023-04-24T09:55:55;7.20;;;6.60;;
16401;SDS011;8310;44.626;11.176;2023-04-24T09:58:26;7.32;;;6.63;;
16401;SDS011;8310;44.626;11.176;2023-04-24T10:00:53;7.15;;;6.55;;
16401;SDS011;8310;44.626;11.176;2023-04-24T10:03:23;6.38;;;5.88;;
16401;SDS011;8310;44.626;11.176;2023-04-24T10:05:52;6.75;;;6.00;;
16401;SDS011;8310;44.626;11.176;2023-04-24T10:08:20;6.15;;;5.68;;
16401;SDS011;8310;44.626;11.176;2023-04-24T10:10:48;7.25;;;6.50;;
16401;SDS011;8310;44.626;11.176;2023-04-24T10:13:18;7.65;;;6.80;;
16401;SDS011;8310;44.626;11.176;2023-04-24T10:15:46;5.95;;;5.20;;
16401;SDS011;8310;44.626;11.176;2023-04-24T10:18:15;6.45;;;5.85;;
16401;SDS011;8310;44.626;11.176;2023-04-24T10:20:43;6.72;;;6.13;;
16401;SDS011;8310;44.626;11.176;2023-04-24T10:23:12;6.28;;;5.78;;
16401;SDS011;8310;44.626;11.176;2023-04-24T10:25:39;6.95;;;6.35;;
16401;SDS011;8310;44.626;11.176;2023-04-24T10:28:07;6.20;;;5.70;;
16401;SDS011;8310;44.626;11.176;2023-04-24T10:30:38;6.85;;;6.35;;
16401;SDS011;8310;44.626;11.176;2023-04-24T10:33:09;6.97;;;6.43;;
16401;SDS011;8310;44.626;11.176;2023-04-24T10:35:39;6.18;;;5.60;;
16401;SDS011;8310;44.626;11.176;2023-04-24T10:38:12;6.07;;;5.57;;
16401;SDS011;8310;44.626;11.176;2023-04-24T10:40:42;6.60;;;6.10;;
16401;SDS011;8310;44.626;11.176;2023-04-24T10:43:09;6.63;;;6.03;;
16401;SDS011;8310;44.626;11.176;2023-04-24T10:45:39;6.50;;;5.90;;
16401;SDS011;8310;44.626;11.176;2023-04-24T10:48:07;6.30;;;5.80;;
16401;SDS011;8310;44.626;11.176;2023-04-24T10:53:14;9.10;;;8.20;;
16401;SDS011;8310;44.626;11.176;2023-04-24T10:55:44;6.80;;;6.20;;
16401;SDS011;8310;44.626;11.176;2023-04-24T10:58:13;6.53;;;6.13;;
16401;SDS011;8310;44.626;11.176;2023-04-24T11:00:43;7.05;;;6.15;;
16401;SDS011;8310;44.626;11.176;2023-04-24T11:03:22;7.18;;;6.53;;
16401;SDS011;8310;44.626;11.176;2023-04-24T11:05:58;8.95;;;7.13;;
16401;SDS011;8310;44.626;11.176;2023-04-24T11:08:28;7.00;;;6.40;;
16401;SDS011;8310;44.626;11.176;2023-04-24T11:10:58;6.93;;;6.32;;
16401;SDS011;8310;44.626;11.176;2023-04-24T11:16:35;7.38;;;6.82;;
16401;SDS011;8310;44.626;11.176;2023-04-24T11:19:06;6.50;;;5.90;;
16401;SDS011;8310;44.626;11.176;2023-04-24T11:21:41;5.88;;;5.47;;
16401;SDS011;8310;44.626;11.176;2023-04-24T11:24:23;6.07;;;5.50;;
16401;SDS011;8310;44.626;11.176;2023-04-24T11:26:53;7.40;;;6.03;;
16401;SDS011;8310;44.626;11.176;2023-04-24T11:29:22;5.38;;;4.90;;
16401;SDS011;8310;44.626;11.176;2023-04-24T11:31:51;6.63;;;5.53;;
16401;SDS011;8310;44.626;11.176;2023-04-24T11:34:20;7.57;;;6.30;;
16401;SDS011;8310;44.626;11.176;2023-04-24T11:36:48;6.43;;;5.82;;
16401;SDS011;8310;44.626;11.176;2023-04-24T11:39:16;5.43;;;4.97;;
16401;SDS011;8310;44.626;11.176;2023-04-24T11:41:44;6.25;;;5.65;;
16401;SDS011;8310;44.626;11.176;2023-04-24T11:44:13;5.72;;;5.32;;
16401;SDS011;8310;44.626;11.176;2023-04-24T11:46:41;5.75;;;5.25;;
16401;SDS011;8310;44.626;11.176;2023-04-24T11:49:12;7.50;;;6.10;;
16401;SDS011;8310;44.626;11.176;2023-04-24T11:51:39;5.78;;;5.38;;
16401;SDS011;8310;44.626;11.176;2023-04-24T11:54:07;6.28;;;5.68;;
16401;SDS011;8310;44.626;11.176;2023-04-24T11:56:34;5.80;;;5.30;;
16401;SDS011;8310;44.626;11.176;2023-04-24T11:59:03;5.65;;;5.15;;
16401;SDS011;8310;44.626;11.176;2023-04-24T12:01:42;5.05;;;4.68;;
16401;SDS011;8310;44.626;11.176;2023-04-24T12:04:09;5.10;;;4.80;;
16401;SDS011;8310;44.626;11.176;2023-04-24T12:06:38;5.57;;;5.07;;
16401;SDS011;8310;44.626;11.176;2023-04-24T12:09:06;6.65;;;5.53;;
16401;SDS011;8310;44.626;11.176;2023-04-24T12:11:37;5.47;;;4.72;;
16401;SDS011;8310;44.626;11.176;2023-04-24T12:14:19;5.60;;;5.13;;
16401;SDS011;8310;44.626;11.176;2023-04-24T12:16:47;6.20;;;5.60;;
16401;SDS011;8310;44.626;11.176;2023-04-24T12:19:20;5.22;;;4.82;;
16401;SDS011;8310;44.626;11.176;2023-04-24T12:21:58;6.53;;;5.13;;
16401;SDS011;8310;44.626;11.176;2023-04-24T12:24:27;7.20;;;6.47;;
16401;SDS011;8310;44.626;11.176;2023-04-24T12:26:54;6.00;;;5.60;;
16401;SDS011;8310;44.626;11.176;2023-04-24T12:29:23;6.40;;;5.70;;
16401;SDS011;8310;44.626;11.176;2023-04-24T12:31:51;5.82;;;5.32;;
16401;SDS011;8310;44.626;11.176;2023-04-24T12:34:20;5.95;;;5.55;;
16401;SDS011;8310;44.626;11.176;2023-04-24T12:36:50;5.82;;;5.32;;
16401;SDS011;8310;44.626;11.176;2023-04-24T12:39:18;5.72;;;5.30;;
16401;SDS011;8310;44.626;11.176;2023-04-24T12:41:55;5.38;;;5.07;;
16401;SDS011;8310;44.626;11.176;2023-04-24T12:44:30;5.35;;;4.85;;
16401;SDS011;8310;44.626;11.176;2023-04-24T12:46:59;4.80;;;4.40;;
16401;SDS011;8310;44.626;11.176;2023-04-24T12:49:29;4.22;;;3.92;;
16401;SDS011;8310;44.626;11.176;2023-04-24T12:51:57;5.32;;;4.93;;
16401;SDS011;8310;44.626;11.176;2023-04-24T12:56:58;4.45;;;4.15;;
16401;SDS011;8310;44.626;11.176;2023-04-24T12:59:25;4.97;;;4.47;;
16401;SDS011;8310;44.626;11.176;2023-04-24T14:50:28;3.55;;;3.42;;
16401;SDS011;8310;44.626;11.176;2023-04-24T14:52:55;3.70;;;3.50;;
16401;SDS011;8310;44.626;11.176;2023-04-24T17:48:13;2.63;;;2.42;;
16401;SDS011;8310;44.626;11.176;2023-04-24T17:50:41;3.38;;;2.40;;
16401;SDS011;8310;44.626;11.176;2023-04-24T17:53:09;3.53;;;2.53;;
16401;SDS011;8310;44.626;11.176;2023-04-24T17:55:37;8.55;;;2.70;;
16401;SDS011;8310;44.626;11.176;2023-04-24T17:58:06;3.33;;;2.58;;
16401;SDS011;8310;44.626;11.176;2023-04-24T18:00:36;3.35;;;2.50;;
16401;SDS011;8310;44.626;11.176;2023-04-24T18:03:04;2.85;;;2.30;;
16401;SDS011;8310;44.626;11.176;2023-04-24T18:05:35;4.00;;;2.88;;
16401;SDS011;8310;44.626;11.176;2023-04-24T18:08:04;2.78;;;2.40;;
16401;SDS011;8310;44.626;11.176;2023-04-24T18:10:32;3.95;;;2.70;;
16401;SDS011;8310;44.626;11.176;2023-04-24T18:13:02;2.40;;;2.20;;
16401;SDS011;8310;44.626;11.176;2023-04-24T18:15:30;2.58;;;2.38;;
16401;SDS011;8310;44.626;11.176;2023-04-24T18:18:00;3.22;;;2.97;;
16401;SDS011;8310;44.626;11.176;2023-04-24T18:20:28;2.30;;;2.20;;
16401;SDS011;8310;44.626;11.176;2023-04-24T18:22:55;3.67;;;2.22;;
16401;SDS011;8310;44.626;11.176;2023-04-24T18:25:24;2.10;;;1.90;;
16401;SDS011;8310;44.626;11.176;2023-04-24T18:27:52;2.25;;;2.10;;
16401;SDS011;8310;44.626;11.176;2023-04-24T18:30:20;2.90;;;1.98;;
16401;SDS011;8310;44.626;11.176;2023-04-24T18:32:49;1.70;;;1.60;;
16401;SDS011;8310;44.626;11.176;2023-04-24T18:35:18;1.90;;;1.67;;
16401;SDS011;8310;44.626;11.176;2023-04-24T18:37:46;1.77;;;1.67;;
16401;SDS011;8310;44.626;11.176;2023-04-24T18:40:14;1.77;;;1.58;;
16401;SDS011;8310;44.626;11.176;2023-04-24T18:42:43;3.80;;;2.78;;
16401;SDS011;8310;44.626;11.176;2023-04-24T18:45:11;2.30;;;1.60;;
16401;SDS011;8310;44.626;11.176;2023-04-24T18:47:38;1.70;;;1.60;;
16401;SDS011;8310;44.626;11.176;2023-04-24T18:50:07;1.13;;;1.10;;
16401;SDS011;8310;44.626;11.176;2023-04-24T18:52:37;1.38;;;1.25;;
16401;SDS011;8310;44.626;11.176;2023-04-24T18:55:05;1.77;;;1.17;;
16401;SDS011;8310;44.626;11.176;2023-04-24T18:57:34;1.40;;;1.30;;
16401;SDS011;8310;44.626;11.176;2023-04-24T19:00:03;1.70;;;1.25;;
16401;SDS011;8310;44.626;11.176;2023-04-24T19:02:31;1.30;;;1.20;;
16401;SDS011;8310;44.626;11.176;2023-04-24T19:04:59;1.25;;;1.15;;
16401;SDS011;8310;44.626;11.176;2023-04-24T19:07:27;1.40;;;1.30;;
16401;SDS011;8310;44.626;11.176;2023-04-24T19:09:56;1.40;;;1.30;;
16401;SDS011;8310;44.626;11.176;2023-04-24T19:12:25;1.10;;;1.10;;
16401;SDS011;8310;44.626;11.176;2023-04-24T19:14:53;1.60;;;1.25;;
16401;SDS011;8310;44.626;11.176;2023-04-24T19:17:22;2.13;;;1.40;;
16401;SDS011;8310;44.626;11.176;2023-04-24T19:19:50;0.90;;;0.90;;
16401;SDS011;8310;44.626;11.176;2023-04-24T19:22:18;1.00;;;1.00;;
16401;SDS011;8310;44.626;11.176;2023-04-24T19:24:46;0.98;;;0.90;;
16401;SDS011;8310;44.626;11.176;2023-04-24T19:27:15;1.35;;;0.90;;
16401;SDS011;8310;44.626;11.176;2023-04-24T19:29:42;2.70;;;1.15;;
16401;SDS011;8310;44.626;11.176;2023-04-24T19:32:10;1.52;;;1.20;;
16401;SDS011;8310;44.626;11.176;2023-04-24T19:34:38;2.47;;;1.27;;
16401;SDS011;8310;44.626;11.176;2023-04-24T19:37:05;1.83;;;1.02;;
16401;SDS011;8310;44.626;11.176;2023-04-24T19:39:33;2.03;;;0.93;;
16401;SDS011;8310;44.626;11.176;2023-04-24T19:42:15;0.90;;;0.90;;
16401;SDS011;8310;44.626;11.176;2023-04-24T19:44:43;1.20;;;1.10;;
16401;SDS011;8310;44.626;11.176;2023-04-24T19:47:11;0.95;;;0.90;;
16401;SDS011;8310;44.626;11.176;2023-04-24T19:49:39;0.88;;;0.80;;
16401;SDS011;8310;44.626;11.176;2023-04-24T19:52:06;1.92;;;0.90;;
16401;SDS011;8310;44.626;11.176;2023-04-24T19:54:33;1.70;;;1.33;;
16401;SDS011;8310;44.626;11.176;2023-04-24T19:57:01;1.05;;;0.85;;
16401;SDS011;8310;44.626;11.176;2023-04-24T19:59:31;1.08;;;1.08;;
16401;SDS011;8310;44.626;11.176;2023-04-24T20:01:59;0.77;;;0.77;;
16401;SDS011;8310;44.626;11.176;2023-04-24T20:04:26;1.05;;;0.95;;
16401;SDS011;8310;44.626;11.176;2023-04-24T20:06:55;1.27;;;0.85;;
16401;SDS011;8310;44.626;11.176;2023-04-24T20:09:23;1.00;;;1.00;;
16401;SDS011;8310;44.626;11.176;2023-04-24T20:11:50;1.10;;;1.10;;
16401;SDS011;8310;44.626;11.176;2023-04-24T20:14:18;2.08;;;1.20;;
16401;SDS011;8310;44.626;11.176;2023-04-24T20:16:47;1.40;;;1.30;;
16401;SDS011;8310;44.626;11.176;2023-04-24T20:19:15;1.05;;;1.00;;
16401;SDS011;8310;44.626;11.176;2023-04-24T20:21:43;1.10;;;1.00;;
16401;SDS011;8310;44.626;11.176;2023-04-24T20:24:11;0.98;;;0.90;;
16401;SDS011;8310;44.626;11.176;2023-04-24T20:26:40;1.08;;;0.80;;
16401;SDS011;8310;44.626;11.176;2023-04-24T20:29:08;0.93;;;0.93;;
16401;SDS011;8310;44.626;11.176;2023-04-24T20:31:37;2.47;;;1.13;;
16401;SDS011;8310;44.626;11.176;2023-04-24T20:34:07;0.95;;;0.95;;
16401;SDS011;8310;44.626;11.176;2023-04-24T20:36:35;1.17;;;1.17;;
16401;SDS011;8310;44.626;11.176;2023-04-24T20:39:02;1.10;;;1.00;;
16401;SDS011;8310;44.626;11.176;2023-04-24T20:41:31;1.20;;;1.10;;
16401;SDS011;8310;44.626;11.176;2023-04-24T20:43:59;1.75;;;1.13;;
16401;SDS011;8310;44.626;11.176;2023-04-24T20:46:27;1.95;;;1.30;;
16401;SDS011;8310;44.626;11.176;2023-04-24T20:48:54;1.65;;;1.15;;
16401;SDS011;8310;44.626;11.176;2023-04-24T20:51:26;1.40;;;1.30;;
16401;SDS011;8310;44.626;11.176;2023-04-24T20:53:54;2.15;;;1.40;;
16401;SDS011;8310;44.626;11.176;2023-04-24T20:56:22;1.98;;;1.40;;
16401;SDS011;8310;44.626;11.176;2023-04-24T20:58:50;1.48;;;1.38;;
16401;SDS011;8310;44.626;11.176;2023-04-24T21:01:18;1.70;;;1.30;;
16401;SDS011;8310;44.626;11.176;2023-04-24T21:03:45;1.25;;;1.25;;
16401;SDS011;8310;44.626;11.176;2023-04-24T21:06:13;1.40;;;1.20;;
16401;SDS011;8310;44.626;11.176;2023-04-24T21:08:43;1.00;;;1.00;;
16401;SDS011;8310;44.626;11.176;2023-04-24T21:11:11;1.10;;;1.10;;
16401;SDS011;8310;44.626;11.176;2023-04-24T21:13:39;0.95;;;0.90;;
16401;SDS011;8310;44.626;11.176;2023-04-24T21:16:07;1.65;;;1.15;;
16401;SDS011;8310;44.626;11.176;2023-04-24T21:18:35;1.70;;;1.30;;
16401;SDS011;8310;44.626;11.176;2023-04-24T21:21:05;3.47;;;1.30;;
16401;SDS011;8310;44.626;11.176;2023-04-24T21:23:32;1.05;;;1.05;;
16401;SDS011;8310;44.626;11.176;2023-04-24T21:26:01;1.33;;;1.27;;
16401;SDS011;8310;44.626;11.176;2023-04-24T21:28:30;1.20;;;1.20;;
16401;SDS011;8310;44.626;11.176;2023-04-24T21:30:58;1.20;;;1.00;;
16401;SDS011;8310;44.626;11.176;2023-04-24T21:33:26;1.23;;;1.13;;
16401;SDS011;8310;44.626;11.176;2023-04-24T21:35:54;3.67;;;1.05;;
16401;SDS011;8310;44.626;11.176;2023-04-24T21:38:22;1.35;;;1.25;;
16401;SDS011;8310;44.626;11.176;2023-04-24T21:40:50;1.15;;;1.02;;
16401;SDS011;8310;44.626;11.176;2023-04-24T21:43:20;1.60;;;1.30;;
16401;SDS011;8310;44.626;11.176;2023-04-24T21:45:48;1.13;;;1.05;;
16401;SDS011;8310;44.626;11.176;2023-04-24T21:48:16;1.17;;;0.98;;
16401;SDS011;8310;44.626;11.176;2023-04-24T21:50:44;1.27;;;1.27;;
16401;SDS011;8310;44.626;11.176;2023-04-24T21:53:13;1.85;;;1.20;;
16401;SDS011;8310;44.626;11.176;2023-04-24T21:55:41;3.65;;;1.30;;
16401;SDS011;8310;44.626;11.176;2023-04-24T21:58:09;1.35;;;1.20;;
16401;SDS011;8310;44.626;11.176;2023-04-24T22:00:38;1.35;;;1.30;;
16401;SDS011;8310;44.626;11.176;2023-04-24T22:03:06;1.90;;;1.67;;
16401;SDS011;8310;44.626;11.176;2023-04-24T22:05:34;1.88;;;1.52;;
16401;SDS011;8310;44.626;11.176;2023-04-24T22:08:01;1.70;;;1.60;;
16401;SDS011;8310;44.626;11.176;2023-04-24T22:10:29;1.80;;;1.70;;
16401;SDS011;8310;44.626;11.176;2023-04-24T22:12:57;1.65;;;1.60;;
16401;SDS011;8310;44.626;11.176;2023-04-24T22:15:25;2.30;;;1.75;;
16401;SDS011;8310;44.626;11.176;2023-04-24T22:17:54;1.70;;;1.55;;
16401;SDS011;8310;44.626;11.176;2023-04-24T22:20:21;2.45;;;1.92;;
16401;SDS011;8310;44.626;11.176;2023-04-24T22:22:49;2.35;;;2.15;;
16401;SDS011;8310;44.626;11.176;2023-04-24T22:25:17;2.42;;;2.13;;
16401;SDS011;8310;44.626;11.176;2023-04-24T22:27:44;2.35;;;1.95;;
16401;SDS011;8310;44.626;11.176;2023-04-24T22:30:12;2.03;;;1.77;;
16401;SDS011;8310;44.626;11.176;2023-04-24T22:32:40;3.63;;;2.20;;
16401;SDS011;8310;44.626;11.176;2023-04-24T22:35:09;2.05;;;1.95;;
16401;SDS011;8310;44.626;11.176;2023-04-24T22:37:37;4.90;;;2.15;;
16401;SDS011;8310;44.626;11.176;2023-04-24T22:40:05;3.17;;;2.30;;
16401;SDS011;8310;44.626;11.176;2023-04-24T22:42:32;7.00;;;2.42;;
16401;SDS011;8310;44.626;11.176;2023-04-24T22:45:01;3.67;;;2.20;;
16401;SDS011;8310;44.626;11.176;2023-04-24T22:47:28;5.65;;;2.20;;
16401;SDS011;8310;44.626;11.176;2023-04-24T22:49:56;2.40;;;2.05;;
16401;SDS011;8310;44.626;11.176;2023-04-24T22:52:26;3.55;;;2.05;;
16401;SDS011;8310;44.626;11.176;2023-04-24T22:54:54;3.78;;;2.25;;
16401;SDS011;8310;44.626;11.176;2023-04-24T22:57:22;6.00;;;3.10;;
16401;SDS011;8310;44.626;11.176;2023-04-24T22:59:49;3.38;;;2.72;;
16401;SDS011;8310;44.626;11.176;2023-04-24T23:02:19;3.95;;;2.30;;
16401;SDS011;8310;44.626;11.176;2023-04-24T23:04:46;3.50;;;1.98;;
16401;SDS011;8310;44.626;11.176;2023-04-24T23:07:15;3.80;;;2.25;;
16401;SDS011;8310;44.626;11.176;2023-04-24T23:09:44;4.93;;;2.42;;
16401;SDS011;8310;44.626;11.176;2023-04-24T23:12:13;3.80;;;2.35;;
16401;SDS011;8310;44.626;11.176;2023-04-24T23:14:40;3.47;;;2.30;;
16401;SDS011;8310;44.626;11.176;2023-04-24T23:17:09;3.25;;;2.20;;
16401;SDS011;8310;44.626;11.176;2023-04-24T23:19:36;3.70;;;2.20;;
16401;SDS011;8310;44.626;11.176;2023-04-24T23:22:04;3.15;;;1.80;;
16401;SDS011;8310;44.626;11.176;2023-04-24T23:24:32;2.50;;;2.13;;
16401;SDS011;8310;44.626;11.176;2023-04-24T23:27:00;2.55;;;2.03;;
16401;SDS011;8310;44.626;11.176;2023-04-24T23:29:27;3.75;;;2.28;;
16401;SDS011;8310;44.626;11.176;2023-04-24T23:31:55;2.85;;;2.17;;
16401;SDS011;8310;44.626;11.176;2023-04-24T23:44:15;2.20;;;2.10;;
16401;SDS011;8310;44.626;11.176;2023-04-24T23:46:42;2.25;;;1.90;;
16401;SDS011;8310;44.626;11.176;2023-04-24T23:49:09;2.20;;;2.00;;
16401;SDS011;8310;44.626;11.176;2023-04-24T23:51:38;2.40;;;1.90;;
